Time;durP1;ratioP1;P1;durP2;ratioP2;P2;SDS_P1;SDS_P2;PMS_P1;PMS_P2;Temp;Humidity;BMP_temperature;BMP_pressure;BME280_temperature;BME280_humidity;BME280_pressure;Samples;Min_cycle;Max_cycle;Signal;HPM_P1;HPM_P2
2022/09/11 00:00:59;;;;;;;29.97;20.33;;;;;;;;;;4989533;28;20208;-60
2022/09/11 00:03:27;;;;;;;30.80;19.57;;;;;;;;;;4989178;28;20203;-61
2022/09/11 00:05:53;;;;;;;30.33;18.80;;;;;;;;;;4989276;28;20239;-60
2022/09/11 00:08:20;;;;;;;28.17;18.07;;;;;;;;;;4989871;28;20568;-60
2022/09/11 00:10:47;;;;;;;28.50;17.60;;;;;;;;;;4989588;28;20251;-60
2022/09/11 00:13:20;;;;;;;27.90;17.37;;;;;;;;;;4990254;28;20188;-60
2022/09/11 00:15:50;;;;;;;26.27;17.33;;;;;;;;;;4988768;28;20264;-60
2022/09/11 00:18:20;;;;;;;23.70;16.67;;;;;;;;;;4989047;28;20189;-60
2022/09/11 00:20:51;;;;;;;26.43;17.00;;;;;;;;;;4989477;28;20216;-60
2022/09/11 00:23:18;;;;;;;25.47;16.47;;;;;;;;;;4989051;28;20292;-60
2022/09/11 00:25:45;;;;;;;24.17;16.27;;;;;;;;;;4988926;28;20192;-60
2022/09/11 00:28:15;;;;;;;25.37;16.60;;;;;;;;;;4989203;28;20284;-60
2022/09/11 00:30:43;;;;;;;25.57;16.83;;;;;;;;;;4952136;28;20342;-61
2022/09/11 00:33:11;;;;;;;21.97;15.03;;;;;;;;;;4969682;28;20196;-60
2022/09/11 00:35:38;;;;;;;27.33;16.10;;;;;;;;;;4989244;28;20196;-60
2022/09/11 00:38:07;;;;;;;25.40;16.50;;;;;;;;;;4989192;28;20197;-60
2022/09/11 00:40:45;;;;;;;26.20;17.53;;;;;;;;;;4982538;28;20205;-61
2022/09/11 00:43:13;;;;;;;26.63;16.73;;;;;;;;;;4967488;28;20915;-60
2022/09/11 00:45:39;;;;;;;25.87;16.17;;;;;;;;;;4952717;28;20280;-61
2022/09/11 00:48:06;;;;;;;25.20;16.47;;;;;;;;;;4983479;28;20201;-61
2022/09/11 00:50:33;;;;;;;25.07;15.47;;;;;;;;;;4972038;28;20184;-61
2022/09/11 00:53:01;;;;;;;21.47;15.57;;;;;;;;;;4987224;28;20600;-61
2022/09/11 00:55:31;;;;;;;23.50;15.57;;;;;;;;;;4971369;28;20193;-62
2022/09/11 00:57:58;;;;;;;25.07;15.47;;;;;;;;;;4989219;28;20291;-60
2022/09/11 01:00:25;;;;;;;20.80;14.57;;;;;;;;;;4988801;28;20321;-60
2022/09/11 01:02:52;;;;;;;21.97;14.97;;;;;;;;;;4971582;28;20263;-60
2022/09/11 01:05:21;;;;;;;20.47;14.23;;;;;;;;;;4970633;28;20195;-60
2022/09/11 01:07:48;;;;;;;20.47;14.40;;;;;;;;;;4970685;28;20207;-60
2022/09/11 01:10:15;;;;;;;21.07;13.63;;;;;;;;;;4971848;28;20208;-61
2022/09/11 01:12:42;;;;;;;21.27;13.83;;;;;;;;;;4989017;28;20185;-60
2022/09/11 01:15:11;;;;;;;21.93;13.87;;;;;;;;;;4971332;28;20193;-60
2022/09/11 01:17:38;;;;;;;22.40;14.43;;;;;;;;;;4987724;28;20189;-61
2022/09/11 01:20:08;;;;;;;22.03;14.87;;;;;;;;;;4970597;28;20283;-61
2022/09/11 01:22:38;;;;;;;21.63;14.27;;;;;;;;;;4988956;28;20193;-60
2022/09/11 01:25:19;;;;;;;25.20;14.83;;;;;;;;;;4988998;28;20196;-61
2022/09/11 01:27:46;;;;;;;22.97;15.03;;;;;;;;;;4955395;28;20212;-60
2022/09/11 01:30:36;;;;;;;21.30;14.10;;;;;;;;;;4970559;28;20181;-61
2022/09/11 01:33:02;;;;;;;21.33;14.63;;;;;;;;;;4983268;28;20203;-61
2022/09/11 01:35:35;;;;;;;23.53;14.60;;;;;;;;;;4991006;28;20192;-61
2022/09/11 01:38:08;;;;;;;24.30;15.33;;;;;;;;;;4974537;28;20204;-61
2022/09/11 01:40:39;;;;;;;20.67;14.10;;;;;;;;;;4968996;28;20284;-61
2022/09/11 01:43:07;;;;;;;19.80;14.60;;;;;;;;;;4986183;28;20271;-61
2022/09/11 01:45:36;;;;;;;20.27;14.80;;;;;;;;;;4974378;28;20235;-61
2022/09/11 01:48:03;;;;;;;21.37;14.53;;;;;;;;;;4955694;28;20198;-60
2022/09/11 01:50:30;;;;;;;21.77;14.33;;;;;;;;;;4958263;28;20200;-61
2022/09/11 01:52:58;;;;;;;19.03;13.07;;;;;;;;;;4958436;28;20228;-60
2022/09/11 01:55:42;;;;;;;19.97;13.27;;;;;;;;;;4973845;28;20723;-62
2022/09/11 01:58:14;;;;;;;17.03;12.13;;;;;;;;;;4955516;28;20614;-61
2022/09/11 02:00:43;;;;;;;17.23;13.23;;;;;;;;;;4974302;28;20248;-61
2022/09/11 02:03:19;;;;;;;19.73;13.20;;;;;;;;;;4991838;28;20195;-60
2022/09/11 02:05:48;;;;;;;16.97;12.83;;;;;;;;;;4991564;28;20196;-60
2022/09/11 02:08:25;;;;;;;17.00;12.77;;;;;;;;;;4958721;28;20227;-61
2022/09/11 02:10:56;;;;;;;19.23;13.40;;;;;;;;;;4958282;28;20632;-60
2022/09/11 02:13:28;;;;;;;16.80;12.33;;;;;;;;;;4991928;28;20561;-60
2022/09/11 02:15:56;;;;;;;18.07;12.07;;;;;;;;;;4958352;28;20201;-60
2022/09/11 02:18:25;;;;;;;17.83;12.27;;;;;;;;;;4957742;28;20193;-60
2022/09/11 02:20:52;;;;;;;16.97;12.00;;;;;;;;;;4970386;28;20217;-61
2022/09/11 02:23:19;;;;;;;14.20;11.53;;;;;;;;;;4977019;28;20189;-61
2022/09/11 02:25:46;;;;;;;15.57;11.00;;;;;;;;;;4972731;28;20272;-61
2022/09/11 02:28:14;;;;;;;14.47;10.77;;;;;;;;;;4968162;28;20201;-60
2022/09/11 02:30:41;;;;;;;14.27;10.53;;;;;;;;;;4973247;28;20192;-60
2022/09/11 02:33:27;;;;;;;13.63;10.80;;;;;;;;;;4973409;28;20201;-61
2022/09/11 02:35:56;;;;;;;12.10;9.97;;;;;;;;;;4972740;28;20201;-60
2022/09/11 02:38:28;;;;;;;15.63;10.90;;;;;;;;;;4957082;28;20203;-61
2022/09/11 02:41:01;;;;;;;14.40;9.57;;;;;;;;;;4965111;28;20211;-60
2022/09/11 02:43:34;;;;;;;15.90;10.40;;;;;;;;;;4960515;28;20193;-61
2022/09/11 02:46:03;;;;;;;15.80;10.67;;;;;;;;;;4990484;28;20208;-60
2022/09/11 02:48:49;;;;;;;16.07;10.70;;;;;;;;;;4973135;28;20196;-60
2022/09/11 02:51:34;;;;;;;13.00;10.67;;;;;;;;;;4990214;28;20200;-61
2022/09/11 02:54:07;;;;;;;14.67;10.53;;;;;;;;;;4973133;28;20204;-60
2022/09/11 02:56:43;;;;;;;15.63;11.20;;;;;;;;;;4972962;28;20969;-61
2022/09/11 02:59:23;;;;;;;15.33;10.53;;;;;;;;;;4990400;28;20222;-60
2022/09/11 03:01:51;;;;;;;14.93;10.57;;;;;;;;;;4956952;28;20228;-61
2022/09/11 03:04:21;;;;;;;13.80;10.73;;;;;;;;;;4954327;28;20204;-61
2022/09/11 03:06:48;;;;;;;14.77;10.97;;;;;;;;;;4971239;28;20198;-61
2022/09/11 03:09:15;;;;;;;15.00;10.57;;;;;;;;;;4972785;28;20189;-61
2022/09/11 03:11:44;;;;;;;15.13;10.20;;;;;;;;;;4972627;28;20231;-63
2022/09/11 03:14:11;;;;;;;15.30;11.23;;;;;;;;;;4973045;28;20185;-63
2022/09/11 03:16:39;;;;;;;14.43;10.73;;;;;;;;;;4989986;28;20189;-60
2022/09/11 03:19:08;;;;;;;15.77;10.77;;;;;;;;;;4972956;28;20212;-60
2022/09/11 03:21:37;;;;;;;18.63;12.10;;;;;;;;;;4972478;28;20600;-60
2022/09/11 03:24:05;;;;;;;14.30;11.67;;;;;;;;;;4989890;28;20195;-60
2022/09/11 03:26:34;;;;;;;14.40;10.30;;;;;;;;;;4972625;28;20196;-61
2022/09/11 03:29:01;;;;;;;16.10;10.53;;;;;;;;;;4972616;28;20205;-60
2022/09/11 03:31:29;;;;;;;15.83;11.43;;;;;;;;;;4972459;28;20201;-61
2022/09/11 03:33:57;;;;;;;15.57;11.20;;;;;;;;;;4969622;28;20198;-63
2022/09/11 03:36:24;;;;;;;19.57;12.50;;;;;;;;;;4971941;28;20189;-61
2022/09/11 03:38:54;;;;;;;16.73;11.63;;;;;;;;;;4972872;28;20205;-61
2022/09/11 03:41:20;;;;;;;15.37;11.20;;;;;;;;;;4982266;28;20220;-60
2022/09/11 03:43:47;;;;;;;17.07;12.20;;;;;;;;;;4989389;28;20192;-61
2022/09/11 03:46:31;;;;;;;17.23;11.90;;;;;;;;;;4972154;28;20558;-60
2022/09/11 03:48:58;;;;;;;14.03;11.47;;;;;;;;;;4988709;28;20243;-60
2022/09/11 03:51:43;;;;;;;16.63;11.37;;;;;;;;;;4971792;28;20209;-60
2022/09/11 03:54:09;;;;;;;17.13;12.03;;;;;;;;;;4989229;28;20200;-61
2022/09/11 03:56:54;;;;;;;16.80;12.13;;;;;;;;;;4971458;28;20180;-60
2022/09/11 03:59:21;;;;;;;17.53;12.27;;;;;;;;;;4989560;28;20202;-60
2022/09/11 04:02:05;;;;;;;17.47;12.13;;;;;;;;;;4989225;28;20564;-61
2022/09/11 04:04:35;;;;;;;18.40;12.33;;;;;;;;;;4971393;28;20197;-65
2022/09/11 04:07:20;;;;;;;18.13;11.23;;;;;;;;;;4989066;28;20191;-60
2022/09/11 04:09:47;;;;;;;18.13;10.87;;;;;;;;;;4971979;28;20208;-60
2022/09/11 04:12:32;;;;;;;19.20;10.87;;;;;;;;;;4989499;28;20537;-60
2022/09/11 04:15:01;;;;;;;16.13;10.63;;;;;;;;;;4971651;28;20708;-60
2022/09/11 04:17:29;;;;;;;15.03;10.50;;;;;;;;;;4971812;28;20196;-60
2022/09/11 04:19:57;;;;;;;17.87;10.93;;;;;;;;;;4988905;28;20592;-60
2022/09/11 04:22:24;;;;;;;14.47;10.63;;;;;;;;;;4971672;28;20201;-60
2022/09/11 04:24:51;;;;;;;15.33;10.60;;;;;;;;;;4988920;28;20217;-60
2022/09/11 04:27:18;;;;;;;17.60;11.73;;;;;;;;;;4968405;28;20235;-60
2022/09/11 04:29:46;;;;;;;17.77;11.17;;;;;;;;;;4963329;28;20201;-61
2022/09/11 04:32:14;;;;;;;14.03;10.20;;;;;;;;;;4971413;28;20248;-60
2022/09/11 04:34:40;;;;;;;15.93;10.60;;;;;;;;;;4988716;28;20526;-60
2022/09/11 04:37:07;;;;;;;14.10;10.07;;;;;;;;;;4971687;28;20232;-61
2022/09/11 04:39:34;;;;;;;13.60;10.17;;;;;;;;;;4971308;28;20192;-60
2022/09/11 04:42:03;;;;;;;13.63;10.30;;;;;;;;;;4971342;28;20560;-61
2022/09/11 04:44:31;;;;;;;13.10;9.47;;;;;;;;;;4971058;28;20203;-61
2022/09/11 04:46:58;;;;;;;13.97;9.30;;;;;;;;;;4977104;28;20204;-60
2022/09/11 04:49:25;;;;;;;14.20;8.97;;;;;;;;;;4988524;28;20611;-60
2022/09/11 04:51:52;;;;;;;12.17;8.70;;;;;;;;;;4971181;28;20224;-61
2022/09/11 04:54:22;;;;;;;12.57;8.60;;;;;;;;;;4971918;28;20200;-61
2022/09/11 04:56:50;;;;;;;10.47;8.47;;;;;;;;;;4988634;28;20201;-60
2022/09/11 04:59:18;;;;;;;11.60;9.00;;;;;;;;;;4970875;28;20268;-60
2022/09/11 05:01:53;;;;;;;10.53;7.83;;;;;;;;;;4970764;28;20234;-60
2022/09/11 05:04:21;;;;;;;11.33;7.77;;;;;;;;;;4970951;28;20211;-60
2022/09/11 05:06:53;;;;;;;13.43;8.00;;;;;;;;;;4971065;28;20201;-59
2022/09/11 05:09:20;;;;;;;9.43;7.67;;;;;;;;;;4970329;28;20201;-59
2022/09/11 05:11:47;;;;;;;11.40;7.93;;;;;;;;;;4988770;28;20189;-59
2022/09/11 05:14:15;;;;;;;14.40;7.90;;;;;;;;;;4988156;28;20596;-60
2022/09/11 05:16:44;;;;;;;10.93;7.90;;;;;;;;;;4971262;28;20205;-60
2022/09/11 05:19:13;;;;;;;9.80;7.67;;;;;;;;;;4971874;28;20192;-60
2022/09/11 05:21:42;;;;;;;11.87;7.57;;;;;;;;;;4970398;28;20956;-60
2022/09/11 05:24:09;;;;;;;9.03;7.17;;;;;;;;;;4971050;28;20204;-59
2022/09/11 05:26:36;;;;;;;10.17;7.37;;;;;;;;;;4971206;28;20279;-60
2022/09/11 05:29:09;;;;;;;8.97;7.17;;;;;;;;;;4971239;28;20556;-59
2022/09/11 05:31:46;;;;;;;9.80;7.10;;;;;;;;;;4952787;28;20244;-60
2022/09/11 05:34:16;;;;;;;11.43;7.93;;;;;;;;;;4985769;28;20192;-60
2022/09/11 05:36:44;;;;;;;9.80;6.97;;;;;;;;;;4970657;28;20211;-60
2022/09/11 05:39:11;;;;;;;10.10;7.30;;;;;;;;;;4971245;28;20291;-60
2022/09/11 05:41:39;;;;;;;11.53;7.47;;;;;;;;;;4963794;28;20684;-60
2022/09/11 05:44:06;;;;;;;11.00;7.50;;;;;;;;;;4971223;28;20212;-60
2022/09/11 05:46:36;;;;;;;12.27;6.87;;;;;;;;;;4971194;28;20201;-60
2022/09/11 05:49:04;;;;;;;11.20;7.07;;;;;;;;;;4971270;28;20203;-59
2022/09/11 05:51:34;;;;;;;9.40;6.77;;;;;;;;;;4987784;28;20628;-60
2022/09/11 05:54:02;;;;;;;9.10;7.00;;;;;;;;;;4970785;28;20263;-60
2022/09/11 05:56:30;;;;;;;10.87;7.20;;;;;;;;;;4971235;28;20247;-62
2022/09/11 05:59:01;;;;;;;12.63;8.33;;;;;;;;;;4971116;28;20196;-62
2022/09/11 06:01:35;;;;;;;10.60;7.27;;;;;;;;;;4971895;28;20290;-61
2022/09/11 06:04:13;;;;;;;10.17;7.40;;;;;;;;;;4971181;28;20297;-61
2022/09/11 06:06:43;;;;;;;11.40;7.37;;;;;;;;;;4971011;28;20209;-60
2022/09/11 06:09:10;;;;;;;10.63;7.23;;;;;;;;;;4955185;28;21025;-59
2022/09/11 06:11:37;;;;;;;12.07;7.10;;;;;;;;;;4970930;28;20208;-60
2022/09/11 06:14:04;;;;;;;10.40;6.73;;;;;;;;;;4970556;28;20192;-60
2022/09/11 06:16:33;;;;;;;13.27;6.70;;;;;;;;;;4971088;28;20197;-61
2022/09/11 06:19:08;;;;;;;10.23;7.10;;;;;;;;;;4971016;28;20223;-59
2022/09/11 06:21:35;;;;;;;10.50;7.07;;;;;;;;;;4973292;28;20223;-61
2022/09/11 06:24:08;;;;;;;10.37;6.33;;;;;;;;;;4935148;28;20728;-61
2022/09/11 06:26:35;;;;;;;8.57;6.53;;;;;;;;;;4965922;28;20287;-61
2022/09/11 06:29:02;;;;;;;11.23;6.70;;;;;;;;;;4961912;28;20212;-61
2022/09/11 06:31:34;;;;;;;9.93;6.60;;;;;;;;;;4962245;28;20295;-62
2022/09/11 06:34:01;;;;;;;12.60;6.40;;;;;;;;;;4959307;28;20287;-62
2022/09/11 06:36:31;;;;;;;14.23;7.13;;;;;;;;;;4977307;28;20200;-62
2022/09/11 06:39:03;;;;;;;11.53;7.10;;;;;;;;;;4966947;28;20926;-61
2022/09/11 06:41:32;;;;;;;16.03;7.10;;;;;;;;;;4973412;28;20236;-61
2022/09/11 06:44:08;;;;;;;9.60;6.17;;;;;;;;;;4973366;28;20247;-61
2022/09/11 06:46:38;;;;;;;9.73;6.83;;;;;;;;;;4965736;28;20209;-61
2022/09/11 06:49:07;;;;;;;11.50;6.57;;;;;;;;;;4965370;28;20771;-63
2022/09/11 06:51:53;;;;;;;10.37;6.60;;;;;;;;;;4986550;28;20220;-61
2022/09/11 06:54:20;;;;;;;14.07;6.70;;;;;;;;;;4990497;28;20209;-61
2022/09/11 06:56:47;;;;;;;14.20;6.20;;;;;;;;;;4973215;28;20204;-61
2022/09/11 06:59:14;;;;;;;9.80;6.07;;;;;;;;;;4973087;28;20240;-60
2022/09/11 07:01:42;;;;;;;9.73;5.87;;;;;;;;;;4971955;28;20221;-62
2022/09/11 07:04:11;;;;;;;9.23;5.63;;;;;;;;;;4960405;28;20554;-60
2022/09/11 07:06:37;;;;;;;8.23;5.70;;;;;;;;;;4981268;28;20196;-60
2022/09/11 07:09:05;;;;;;;9.80;5.07;;;;;;;;;;4972151;28;20228;-61
2022/09/11 07:11:42;;;;;;;9.37;4.73;;;;;;;;;;4972344;28;20192;-61
2022/09/11 07:14:09;;;;;;;10.63;4.87;;;;;;;;;;4971796;28;20224;-62
2022/09/11 07:16:39;;;;;;;10.53;5.07;;;;;;;;;;4965086;28;20192;-61
2022/09/11 07:19:10;;;;;;;10.03;4.97;;;;;;;;;;4989270;28;20759;-61
2022/09/11 07:21:38;;;;;;;9.57;4.60;;;;;;;;;;4990142;28;20232;-61
2022/09/11 07:24:06;;;;;;;7.67;4.30;;;;;;;;;;4972261;28;20568;-61
2022/09/11 07:26:37;;;;;;;9.27;4.53;;;;;;;;;;4972559;28;20208;-61
2022/09/11 07:29:13;;;;;;;5.90;4.20;;;;;;;;;;4972407;28;20188;-61
2022/09/11 07:31:41;;;;;;;7.07;4.30;;;;;;;;;;4971494;28;20796;-61
2022/09/11 07:34:09;;;;;;;10.00;4.50;;;;;;;;;;4968342;28;20254;-61
2022/09/11 07:36:36;;;;;;;8.57;4.30;;;;;;;;;;4971965;28;20204;-61
2022/09/11 07:39:06;;;;;;;5.67;3.33;;;;;;;;;;4979952;28;20201;-61
2022/09/11 07:41:37;;;;;;;5.53;3.13;;;;;;;;;;4966960;28;20260;-62
2022/09/11 07:44:13;;;;;;;7.10;2.57;;;;;;;;;;4959344;28;20256;-61
2022/09/11 07:46:40;;;;;;;4.43;2.87;;;;;;;;;;4989658;28;20657;-62
2022/09/11 07:49:10;;;;;;;8.47;3.20;;;;;;;;;;4943530;28;20272;-62
2022/09/11 07:51:40;;;;;;;4.97;2.40;;;;;;;;;;4967310;28;20252;-62
2022/09/11 07:54:08;;;;;;;6.70;3.00;;;;;;;;;;4969449;28;20661;-61
2022/09/11 07:56:36;;;;;;;5.03;2.60;;;;;;;;;;4970326;28;20197;-61
2022/09/11 07:59:06;;;;;;;7.03;2.93;;;;;;;;;;4960039;28;20205;-62
2022/09/11 08:01:35;;;;;;;7.17;3.00;;;;;;;;;;4971091;28;20252;-61
2022/09/11 08:04:04;;;;;;;5.90;2.73;;;;;;;;;;4963255;28;20193;-61
2022/09/11 08:06:32;;;;;;;7.80;3.27;;;;;;;;;;4987440;28;20200;-62
2022/09/11 08:09:03;;;;;;;4.93;3.20;;;;;;;;;;4969564;28;20192;-61
2022/09/11 08:11:35;;;;;;;6.53;3.10;;;;;;;;;;4971137;28;20201;-61
2022/09/11 08:14:02;;;;;;;6.90;3.40;;;;;;;;;;4961842;28;20233;-61
2022/09/11 08:16:30;;;;;;;5.47;2.50;;;;;;;;;;4963898;28;20197;-61
2022/09/11 08:18:59;;;;;;;7.43;2.97;;;;;;;;;;4954461;28;20581;-62
2022/09/11 08:21:26;;;;;;;4.40;2.80;;;;;;;;;;4987495;28;20616;-61
2022/09/11 08:23:53;;;;;;;3.97;2.50;;;;;;;;;;4978576;28;20601;-61
2022/09/11 08:26:22;;;;;;;4.37;2.77;;;;;;;;;;4981076;28;20189;-61
2022/09/11 08:28:52;;;;;;;4.93;2.43;;;;;;;;;;4971148;28;20199;-62
2022/09/11 08:31:19;;;;;;;3.53;2.37;;;;;;;;;;4970360;28;20212;-62
2022/09/11 08:33:48;;;;;;;5.40;2.57;;;;;;;;;;4969257;28;20692;-62
2022/09/11 08:36:15;;;;;;;7.93;2.73;;;;;;;;;;4983584;28;20259;-61
2022/09/11 08:38:44;;;;;;;3.53;1.90;;;;;;;;;;4964373;28;20198;-61
2022/09/11 08:41:19;;;;;;;4.57;1.87;;;;;;;;;;4969265;28;20295;-61
2022/09/11 08:43:49;;;;;;;5.60;2.07;;;;;;;;;;4987445;28;20200;-61
2022/09/11 08:46:17;;;;;;;3.87;1.70;;;;;;;;;;4984649;28;20986;-61
2022/09/11 08:48:59;;;;;;;5.90;1.93;;;;;;;;;;4979623;28;20256;-61
2022/09/11 08:51:26;;;;;;;4.67;1.80;;;;;;;;;;4956359;28;20707;-61
2022/09/11 08:53:53;;;;;;;4.60;2.03;;;;;;;;;;4988115;28;20886;-62
2022/09/11 08:56:21;;;;;;;5.00;1.57;;;;;;;;;;4988482;28;20280;-62
2022/09/11 08:59:07;;;;;;;4.43;1.63;;;;;;;;;;4988330;28;20192;-61
2022/09/11 09:02:13;;;;;;;6.43;1.60;;;;;;;;;;4986198;28;20212;-62
2022/09/11 09:04:40;;;;;;;2.87;1.60;;;;;;;;;;4932105;29;20281;-62
2022/09/11 09:07:33;;;;;;;2.73;1.67;;;;;;;;;;4927789;29;20199;-62
2022/09/11 09:10:07;;;;;;;2.17;1.40;;;;;;;;;;4970062;28;20299;-61
2022/09/11 09:12:34;;;;;;;3.63;1.40;;;;;;;;;;4983285;28;20193;-62
2022/09/11 09:15:07;;;;;;;4.07;1.23;;;;;;;;;;4996462;28;20611;-62
2022/09/11 09:17:55;;;;;;;2.30;1.40;;;;;;;;;;4982337;28;20204;-62
2022/09/11 09:20:26;;;;;;;2.70;1.20;;;;;;;;;;4985929;28;20208;-62
2022/09/11 09:23:01;;;;;;;3.20;1.60;;;;;;;;;;4970492;28;20680;-61
2022/09/11 09:25:29;;;;;;;3.07;1.43;;;;;;;;;;4970889;28;20196;-62
2022/09/11 09:27:59;;;;;;;3.03;1.60;;;;;;;;;;4971270;28;20271;-62
2022/09/11 09:30:27;;;;;;;2.00;1.17;;;;;;;;;;4979288;28;20208;-61
2022/09/11 09:33:02;;;;;;;3.10;1.50;;;;;;;;;;5001527;28;20212;-61
2022/09/11 09:35:50;;;;;;;5.17;1.40;;;;;;;;;;4980435;28;20646;-60
2022/09/11 09:38:21;;;;;;;3.37;1.60;;;;;;;;;;4986347;28;20193;-60
2022/09/11 09:40:58;;;;;;;5.03;1.33;;;;;;;;;;4981298;28;20185;-59
2022/09/11 09:43:39;;;;;;;3.63;1.30;;;;;;;;;;4996694;28;20222;-60
2022/09/11 09:46:11;;;;;;;4.07;1.50;;;;;;;;;;4987437;28;20200;-60
2022/09/11 09:48:39;;;;;;;3.87;1.40;;;;;;;;;;4985453;28;20217;-60
2022/09/11 09:51:09;;;;;;;3.03;1.30;;;;;;;;;;4975498;28;20240;-60
2022/09/11 09:53:52;;;;;;;2.73;1.20;;;;;;;;;;5006527;28;20231;-61
2022/09/11 09:56:20;;;;;;;3.53;1.20;;;;;;;;;;5003760;28;20180;-61
2022/09/11 09:58:48;;;;;;;3.50;1.40;;;;;;;;;;4989798;28;20184;-61
2022/09/11 10:01:34;;;;;;;3.27;1.60;;;;;;;;;;5010977;28;20191;-61
2022/09/11 10:04:09;;;;;;;1.87;1.17;;;;;;;;;;5009343;28;20196;-61
2022/09/11 10:06:36;;;;;;;2.90;1.10;;;;;;;;;;5017565;28;20188;-62
2022/09/11 10:09:03;;;;;;;5.40;1.40;;;;;;;;;;5006043;28;20224;-61
2022/09/11 10:11:30;;;;;;;2.87;1.20;;;;;;;;;;5009024;28;20246;-62
2022/09/11 10:13:57;;;;;;;4.73;1.47;;;;;;;;;;4990638;28;20580;-61
2022/09/11 10:16:24;;;;;;;2.73;1.40;;;;;;;;;;5009704;28;20205;-61
2022/09/11 10:18:52;;;;;;;4.17;1.57;;;;;;;;;;4992180;28;20184;-62
2022/09/11 10:21:23;;;;;;;3.00;1.33;;;;;;;;;;5016478;28;20194;-61
2022/09/11 10:23:53;;;;;;;3.57;1.30;;;;;;;;;;5007688;28;20228;-62
2022/09/11 10:26:25;;;;;;;1.93;1.20;;;;;;;;;;5003959;28;20192;-61
2022/09/11 10:28:54;;;;;;;2.40;1.27;;;;;;;;;;5008506;28;20188;-62
2022/09/11 10:31:21;;;;;;;5.17;1.50;;;;;;;;;;5007830;28;20195;-60
2022/09/11 10:33:54;;;;;;;1.83;1.30;;;;;;;;;;5008379;28;20196;-60
2022/09/11 10:36:26;;;;;;;4.03;1.40;;;;;;;;;;5015524;28;20191;-62
2022/09/11 10:38:56;;;;;;;3.80;1.37;;;;;;;;;;4992819;28;20196;-61
2022/09/11 10:41:26;;;;;;;3.00;1.27;;;;;;;;;;5009473;28;20203;-61
2022/09/11 10:43:55;;;;;;;2.97;1.50;;;;;;;;;;5009727;28;20711;-60
2022/09/11 10:46:23;;;;;;;2.23;1.40;;;;;;;;;;5023155;28;20190;-60
2022/09/11 10:48:55;;;;;;;4.50;1.30;;;;;;;;;;4996809;28;20185;-61
2022/09/11 10:51:25;;;;;;;2.33;1.53;;;;;;;;;;4988883;28;20260;-61
2022/09/11 10:54:01;;;;;;;2.53;1.40;;;;;;;;;;4990559;28;20209;-61
2022/09/11 10:56:27;;;;;;;2.63;1.30;;;;;;;;;;4989161;28;20200;-60
2022/09/11 10:58:56;;;;;;;4.43;1.60;;;;;;;;;;4988840;28;20865;-60
2022/09/11 11:01:26;;;;;;;2.17;1.20;;;;;;;;;;4989600;28;20445;-60
2022/09/11 11:03:54;;;;;;;3.43;1.40;;;;;;;;;;4987858;28;20219;-60
2022/09/11 11:06:22;;;;;;;2.80;1.33;;;;;;;;;;4979342;28;20290;-61
2022/09/11 11:08:49;;;;;;;2.40;1.40;;;;;;;;;;4989066;28;20271;-60
2022/09/11 11:11:24;;;;;;;2.40;1.40;;;;;;;;;;4988792;28;20196;-60
2022/09/11 11:14:12;;;;;;;2.83;1.40;;;;;;;;;;4972542;28;20207;-61
2022/09/11 11:16:58;;;;;;;2.90;1.20;;;;;;;;;;4959546;28;20303;-60
2022/09/11 11:19:25;;;;;;;3.63;1.30;;;;;;;;;;4990301;28;20192;-60
2022/09/11 11:21:57;;;;;;;5.17;1.37;;;;;;;;;;4981610;28;20272;-61
2022/09/11 11:24:45;;;;;;;3.67;1.20;;;;;;;;;;4989577;28;20212;-61
2022/09/11 11:27:27;;;;;;;3.17;1.40;;;;;;;;;;4984607;28;20195;-60
2022/09/11 11:30:10;;;;;;;2.60;1.40;;;;;;;;;;4993185;28;20192;-60
2022/09/11 11:32:46;;;;;;;1.60;1.30;;;;;;;;;;4965853;28;20189;-61
2022/09/11 11:35:16;;;;;;;3.10;1.77;;;;;;;;;;4988900;28;20207;-61
2022/09/11 11:37:44;;;;;;;3.87;1.40;;;;;;;;;;4977963;28;20189;-61
2022/09/11 11:40:20;;;;;;;3.80;1.47;;;;;;;;;;4987695;28;20197;-61
2022/09/11 11:42:51;;;;;;;1.93;1.20;;;;;;;;;;4988970;28;20778;-61
2022/09/11 11:45:26;;;;;;;3.70;1.60;;;;;;;;;;4988759;28;20355;-61
2022/09/11 11:47:53;;;;;;;3.27;1.20;;;;;;;;;;4986003;28;20263;-61
2022/09/11 11:50:23;;;;;;;2.60;1.50;;;;;;;;;;4971713;28;20189;-62
2022/09/11 11:53:17;;;;;;;2.10;1.27;;;;;;;;;;4977385;28;20235;-61
2022/09/11 11:55:44;;;;;;;3.90;1.60;;;;;;;;;;4983418;28;20193;-60
2022/09/11 11:58:20;;;;;;;4.63;1.30;;;;;;;;;;4986117;28;20207;-60
2022/09/11 12:00:51;;;;;;;2.93;1.37;;;;;;;;;;4984671;28;20254;-59
2022/09/11 12:03:23;;;;;;;2.83;1.33;;;;;;;;;;4999283;28;20216;-61
2022/09/11 12:05:50;;;;;;;4.00;1.37;;;;;;;;;;5004197;28;20196;-60
2022/09/11 12:08:16;;;;;;;5.37;1.33;;;;;;;;;;4981528;28;20201;-60
2022/09/11 12:10:45;;;;;;;2.37;1.50;;;;;;;;;;4995911;28;20193;-60
2022/09/11 12:13:14;;;;;;;2.90;1.50;;;;;;;;;;4994993;28;20196;-60
2022/09/11 12:15:56;;;;;;;3.93;1.40;;;;;;;;;;4981122;28;20189;-60
2022/09/11 12:18:23;;;;;;;3.10;1.50;;;;;;;;;;4982820;28;20197;-60
2022/09/11 12:20:50;;;;;;;2.30;1.27;;;;;;;;;;4987998;28;20227;-60
2022/09/11 12:23:29;;;;;;;6.83;1.67;;;;;;;;;;4986769;28;20223;-61
2022/09/11 12:26:05;;;;;;;2.13;1.33;;;;;;;;;;4987362;28;20193;-59
2022/09/11 12:28:33;;;;;;;4.60;1.43;;;;;;;;;;4981771;28;20213;-61
2022/09/11 12:31:07;;;;;;;2.20;1.27;;;;;;;;;;4987188;28;20627;-60
2022/09/11 12:33:40;;;;;;;3.80;1.30;;;;;;;;;;4987205;28;20664;-60
2022/09/11 12:36:07;;;;;;;3.03;1.37;;;;;;;;;;4981555;28;20309;-60
2022/09/11 12:38:54;;;;;;;2.40;1.37;;;;;;;;;;4981650;28;20971;-60
2022/09/11 12:41:24;;;;;;;2.40;1.20;;;;;;;;;;4981579;28;21803;-60
2022/09/11 12:43:52;;;;;;;5.80;1.83;;;;;;;;;;4984257;28;20291;-60
2022/09/11 12:46:19;;;;;;;2.87;1.77;;;;;;;;;;4984893;28;20182;-60
2022/09/11 12:48:47;;;;;;;3.43;1.50;;;;;;;;;;4985673;28;20282;-61
2022/09/11 12:51:44;;;;;;;3.87;1.57;;;;;;;;;;4983725;28;20932;-60
2022/09/11 12:54:15;;;;;;;2.63;1.33;;;;;;;;;;4975530;28;20272;-61
2022/09/11 12:56:52;;;;;;;3.00;1.30;;;;;;;;;;4997595;28;20232;-61
2022/09/11 12:59:28;;;;;;;2.20;1.40;;;;;;;;;;4986389;28;20212;-61
2022/09/11 13:01:56;;;;;;;4.70;1.33;;;;;;;;;;4970788;28;20196;-61
2022/09/11 13:04:23;;;;;;;3.50;1.40;;;;;;;;;;4983147;28;20209;-61
2022/09/11 13:06:55;;;;;;;3.30;1.40;;;;;;;;;;4992069;28;20241;-62
2022/09/11 13:09:24;;;;;;;2.07;1.37;;;;;;;;;;4986671;28;20188;-61
2022/09/11 13:11:51;;;;;;;3.13;1.37;;;;;;;;;;4983666;28;20188;-61
2022/09/11 13:14:36;;;;;;;2.50;1.30;;;;;;;;;;4980223;28;20185;-61
2022/09/11 13:17:10;;;;;;;4.77;1.40;;;;;;;;;;4971734;28;20185;-61
2022/09/11 13:19:38;;;;;;;3.03;1.43;;;;;;;;;;4998093;28;20195;-61
2022/09/11 13:22:24;;;;;;;3.03;1.43;;;;;;;;;;4983200;28;20196;-62
2022/09/11 13:25:11;;;;;;;3.30;1.60;;;;;;;;;;4979843;28;20205;-61
2022/09/11 13:27:42;;;;;;;2.67;1.40;;;;;;;;;;4987669;28;20188;-62
2022/09/11 13:30:15;;;;;;;5.17;1.43;;;;;;;;;;4988525;28;20196;-62
2022/09/11 13:32:42;;;;;;;2.30;1.50;;;;;;;;;;4987339;28;20258;-62
2022/09/11 13:35:12;;;;;;;1.27;1.10;;;;;;;;;;4974281;28;20200;-62
2022/09/11 13:37:40;;;;;;;4.50;1.40;;;;;;;;;;4976932;28;20197;-62
2022/09/11 13:40:13;;;;;;;3.97;1.37;;;;;;;;;;4979785;28;20239;-62
2022/09/11 13:42:40;;;;;;;2.33;1.20;;;;;;;;;;4990225;28;20224;-62
2022/09/11 13:45:10;;;;;;;3.60;1.20;;;;;;;;;;4988192;28;20267;-62
2022/09/11 13:47:39;;;;;;;2.23;1.37;;;;;;;;;;4990146;28;20263;-62
2022/09/11 13:50:08;;;;;;;4.47;1.33;;;;;;;;;;4989794;28;20274;-62
2022/09/11 13:52:35;;;;;;;4.47;1.67;;;;;;;;;;4988796;28;20604;-61
2022/09/11 13:55:03;;;;;;;3.10;1.40;;;;;;;;;;4990954;28;20188;-61
2022/09/11 13:57:30;;;;;;;3.07;1.57;;;;;;;;;;4973387;28;20661;-62
2022/09/11 13:59:59;;;;;;;4.90;1.50;;;;;;;;;;4972170;28;20207;-62
2022/09/11 14:02:26;;;;;;;4.60;1.47;;;;;;;;;;4989760;28;20192;-62
2022/09/11 14:04:55;;;;;;;3.67;1.27;;;;;;;;;;4987688;28;20295;-62
2022/09/11 14:07:22;;;;;;;4.37;1.37;;;;;;;;;;4986278;28;20201;-61
2022/09/11 14:09:49;;;;;;;2.07;1.23;;;;;;;;;;4981496;28;20197;-63
2022/09/11 14:12:19;;;;;;;2.73;1.23;;;;;;;;;;4973174;28;20200;-61
2022/09/11 14:14:47;;;;;;;3.07;1.20;;;;;;;;;;4989070;28;20192;-61
2022/09/11 14:17:16;;;;;;;2.30;1.40;;;;;;;;;;4987910;28;20205;-62
2022/09/11 14:19:46;;;;;;;2.20;1.20;;;;;;;;;;4986909;28;20201;-54
2022/09/11 14:22:38;;;;;;;4.23;1.37;;;;;;;;;;4986291;28;20294;-54
2022/09/11 14:25:08;;;;;;;3.20;1.50;;;;;;;;;;4969805;28;20691;-55
2022/09/11 14:27:36;;;;;;;4.00;1.30;;;;;;;;;;4990574;28;20228;-55
2022/09/11 14:30:22;;;;;;;8.50;1.70;;;;;;;;;;4989526;28;20201;-54
2022/09/11 14:33:04;;;;;;;2.53;1.30;;;;;;;;;;4989358;28;20267;-51
2022/09/11 14:35:32;;;;;;;3.03;1.60;;;;;;;;;;4991007;28;20251;-53
2022/09/11 14:37:58;;;;;;;2.80;1.30;;;;;;;;;;4990968;28;20193;-52
2022/09/11 14:40:25;;;;;;;8.80;2.13;;;;;;;;;;4990785;28;20608;-54
2022/09/11 14:42:52;;;;;;;10.87;2.23;;;;;;;;;;4990061;28;20200;-51
2022/09/11 14:45:21;;;;;;;3.77;1.17;;;;;;;;;;4986112;28;20259;-54
2022/09/11 14:47:47;;;;;;;4.13;1.50;;;;;;;;;;4986314;28;20251;-57
2022/09/11 14:50:14;;;;;;;18.50;3.43;;;;;;;;;;4990912;28;20251;-57
2022/09/11 14:52:41;;;;;;;7.53;1.97;;;;;;;;;;4965648;28;20235;-57
2022/09/11 14:55:14;;;;;;;3.87;1.33;;;;;;;;;;5010889;28;20226;-55